TimeEDT,TemperatureF,Dew PointF,Humidity,Sea Level PressureIn,VisibilityMPH,Wind Direction,Wind SpeedMPH,Gust SpeedMPH,PrecipitationIn,Events,Conditions,WindDirDegrees,DateUTC
12:53 AM,60.1,55.9,86,30.07,10.0,Calm,Calm,-,N/A,,Mostly Cloudy,0,2012-04-19 04:53:00
1:53 AM,59.0,55.9,90,30.06,10.0,Calm,Calm,-,N/A,,Scattered Clouds,0,2012-04-19 05:53:00
2:53 AM,55.0,53.1,93,30.04,10.0,Calm,Calm,-,N/A,Fog,Shallow Fog,0,2012-04-19 06:53:00
3:53 AM,54.0,52.0,93,30.04,10.0,Calm,Calm,-,N/A,Fog,Patches of Fog,0,2012-04-19 07:53:00
4:19 AM,53.6,51.8,94,30.04,10.0,Calm,Calm,-,N/A,Fog,Patches of Fog,0,2012-04-19 08:19:00
4:53 AM,53.1,50.0,89,30.04,10.0,Calm,Calm,-,N/A,,Partly Cloudy,0,2012-04-19 08:53:00
5:53 AM,51.1,48.9,92,30.04,10.0,Calm,Calm,-,N/A,Fog,Patches of Fog,0,2012-04-19 09:53:00
6:01 AM,51.8,48.2,88,30.05,5.0,Calm,Calm,-,N/A,,Mostly Cloudy,0,2012-04-19 10:01:00
6:12 AM,51.8,50.0,94,30.05,1.5,Calm,Calm,-,N/A,,Mostly Cloudy,0,2012-04-19 10:12:00
6:26 AM,53.6,51.8,94,30.05,0.8,Calm,Calm,-,N/A,,Overcast,0,2012-04-19 10:26:00
6:53 AM,53.1,52.0,96,30.05,0.5,Calm,Calm,-,N/A,Fog,Fog,0,2012-04-19 10:53:00
7:29 AM,53.6,53.6,100,30.07,1.2,ENE,4.6,-,N/A,,Scattered Clouds,70,2012-04-19 11:29:00
7:50 AM,53.6,53.6,100,30.08,1.2,ENE,4.6,-,N/A,,Overcast,60,2012-04-19 11:50:00
7:53 AM,54.0,53.1,97,30.07,1.2,ENE,6.9,-,N/A,,Overcast,60,2012-04-19 11:53:00
8:12 AM,53.6,51.8,94,30.08,1.8,NNE,4.6,-,N/A,,Overcast,20,2012-04-19 12:12:00
8:53 AM,55.0,53.1,93,30.08,1.8,North,6.9,-,N/A,,Overcast,10,2012-04-19 12:53:00
9:00 AM,55.4,53.6,94,30.09,2.0,North,6.9,-,N/A,,Overcast,350,2012-04-19 13:00:00
9:50 AM,55.4,53.6,94,30.09,3.0,ENE,5.8,-,N/A,,Overcast,70,2012-04-19 13:50:00
9:53 AM,55.9,53.1,90,30.08,3.0,ENE,5.8,-,N/A,,Overcast,70,2012-04-19 13:53:00
10:53 AM,57.9,53.1,84,30.09,4.0,NE,5.8,-,N/A,,Haze,40,2012-04-19 14:53:00
11:51 AM,60.8,53.6,77,30.09,10.0,North,6.9,-,N/A,,Mostly Cloudy,350,2012-04-19 15:51:00
11:53 AM,62.1,54.0,75,30.09,10.0,North,5.8,-,N/A,,Mostly Cloudy,350,2012-04-19 15:53:00
12:35 PM,64.4,53.6,68,30.09,10.0,North,8.1,-,N/A,,Scattered Clouds,360,2012-04-19 16:35:00
12:53 PM,64.9,54.0,68,30.07,10.0,Variable,5.8,-,N/A,,Scattered Clouds,0,2012-04-19 16:53:00
1:53 PM,68.0,53.1,59,30.04,10.0,Variable,4.6,-,N/A,,Partly Cloudy,0,2012-04-19 17:53:00
2:53 PM,70.0,52.0,53,30.01,10.0,Calm,Calm,-,N/A,,Scattered Clouds,0,2012-04-19 18:53:00
3:53 PM,73.0,52.0,48,29.98,10.0,Calm,Calm,-,N/A,,Scattered Clouds,0,2012-04-19 19:53:00
4:53 PM,73.0,52.0,48,29.95,10.0,SW,6.9,-,N/A,,Scattered Clouds,220,2012-04-19 20:53:00
5:53 PM,73.9,52.0,46,29.94,10.0,Variable,5.8,-,N/A,,Scattered Clouds,0,2012-04-19 21:53:00
6:53 PM,72.0,50.0,46,29.94,10.0,South,5.8,-,N/A,,Scattered Clouds,190,2012-04-19 22:53:00
7:53 PM,71.1,52.0,51,29.94,10.0,SW,3.5,-,N/A,,Scattered Clouds,230,2012-04-19 23:53:00
8:53 PM,66.9,54.0,63,29.95,10.0,Calm,Calm,-,N/A,,Partly Cloudy,0,2012-04-20 00:53:00
9:53 PM,63.0,54.0,72,29.97,10.0,Calm,Calm,-,N/A,,Partly Cloudy,0,2012-04-20 01:53:00
10:53 PM,62.1,55.0,78,29.97,10.0,Calm,Calm,-,N/A,,Partly Cloudy,0,2012-04-20 02:53:00
11:53 PM,61.0,55.0,81,29.97,10.0,SSW,3.5,-,N/A,,Clear,210,2012-04-20 03:53:00